DLH275D EDDF-EGLL
Flight info
| Callsign | DLH275D |
|---|---|
| Flight time | 1h 5m |
| Altitude | 40000 |
| Route | OBOKA5S OBOKA Z29 TORNU DCT ABNED L980 LOGAN |
| Aircraft | A346/H-SDE2E3FGHIJ3J4J5M1RWXY/LB1D1 |
Departure
| Time | 2026-05-04 05:31 |
|---|---|
| Airport | Frankfurt Main Airport (EDDF) |
Arrival
| Time | 2026-05-04 06:36 |
|---|---|
| Airport | London Heathrow Airport (EGLL) |
| Time | Latitude | Longitude | Altitude | Speed | Heading |
|---|---|---|---|---|---|
| 2026-05-04 05:17 | 50.04540 | 8.56756 | 364 ft | 0 kts | 295° |
| 2026-05-04 05:19 | 50.04538 | 8.56763 | 369 ft | 2 kts | 295° |
| 2026-05-04 05:19 | 50.04530 | 8.56791 | 369 ft | 3 kts | 293° |
| 2026-05-04 05:19 | 50.04522 | 8.56819 | 369 ft | 3 kts | 295° |
| 2026-05-04 05:20 | 50.04513 | 8.56847 | 373 ft | 3 kts | 300° |
| 2026-05-04 05:20 | 50.04502 | 8.56872 | 369 ft | 3 kts | 307° |
| 2026-05-04 05:20 | 50.04491 | 8.56897 | 369 ft | 3 kts | 298° |
| 2026-05-04 05:20 | 50.04484 | 8.56922 | 371 ft | 3 kts | 286° |
| 2026-05-04 05:21 | 50.04482 | 8.56946 | 372 ft | 3 kts | 261° |
| 2026-05-04 05:21 | 50.04487 | 8.56975 | 370 ft | 3 kts | 250° |
| 2026-05-04 05:21 | 50.04494 | 8.57004 | 369 ft | 3 kts | 250° |
| 2026-05-04 05:21 | 50.04501 | 8.57033 | 372 ft | 3 kts | 250° |
| 2026-05-04 05:22 | 50.04507 | 8.57062 | 371 ft | 3 kts | 250° |
| 2026-05-04 05:22 | 50.04512 | 8.57080 | 372 ft | 0 kts | 250° |
| 2026-05-04 05:23 | 50.04511 | 8.57075 | 372 ft | 2 kts | 250° |
| 2026-05-04 05:23 | 50.04507 | 8.57059 | 369 ft | 0 kts | 249° |
| 2026-05-04 05:24 | 50.04500 | 8.57031 | 368 ft | 5 kts | 249° |
| 2026-05-04 05:24 | 50.04485 | 8.56967 | 372 ft | 7 kts | 249° |
| 2026-05-04 05:24 | 50.04465 | 8.56889 | 370 ft | 8 kts | 241° |
| 2026-05-04 05:24 | 50.04403 | 8.56843 | 371 ft | 12 kts | 190° |
| 2026-05-04 05:25 | 50.04317 | 8.56820 | 370 ft | 9 kts | 190° |
| 2026-05-04 05:25 | 50.04250 | 8.56781 | 371 ft | 12 kts | 226° |
| 2026-05-04 05:25 | 50.04211 | 8.56632 | 369 ft | 17 kts | 250° |
| 2026-05-04 05:25 | 50.04165 | 8.56434 | 366 ft | 21 kts | 249° |
| 2026-05-04 05:26 | 50.04108 | 8.56201 | 366 ft | 25 kts | 249° |
| 2026-05-04 05:26 | 50.04045 | 8.55936 | 360 ft | 27 kts | 250° |
| 2026-05-04 05:26 | 50.03977 | 8.55651 | 361 ft | 26 kts | 249° |
| 2026-05-04 05:26 | 50.03912 | 8.55379 | 362 ft | 28 kts | 249° |
| 2026-05-04 05:27 | 50.03843 | 8.55088 | 357 ft | 30 kts | 250° |
| 2026-05-04 05:28 | 50.03397 | 8.53224 | 353 ft | 29 kts | 250° |
| 2026-05-04 05:29 | 50.03333 | 8.52954 | 354 ft | 21 kts | 250° |
| 2026-05-04 05:29 | 50.03289 | 8.52774 | 352 ft | 14 kts | 245° |
| 2026-05-04 05:29 | 50.03271 | 8.52703 | 347 ft | 6 kts | 264° |
| 2026-05-04 05:29 | 50.03279 | 8.52643 | 352 ft | 5 kts | 285° |
| 2026-05-04 05:31 | 49.99153 | 8.52656 | 1557 ft | 183 kts | 180° |
| 2026-05-04 05:31 | 49.97898 | 8.52479 | 2319 ft | 181 kts | 204° |
| 2026-05-04 05:32 | 49.96917 | 8.51266 | 2934 ft | 185 kts | 228° |
| 2026-05-04 05:32 | 49.96015 | 8.49758 | 3491 ft | 195 kts | 225° |
| 2026-05-04 05:32 | 49.95011 | 8.48222 | 4003 ft | 209 kts | 224° |
| 2026-05-04 05:33 | 49.92798 | 8.44900 | 5169 ft | 232 kts | 225° |
| 2026-05-04 05:33 | 49.91593 | 8.43098 | 5746 ft | 248 kts | 225° |
| 2026-05-04 05:33 | 49.90312 | 8.41180 | 6411 ft | 261 kts | 225° |
| 2026-05-04 05:33 | 49.88985 | 8.39198 | 7315 ft | 264 kts | 225° |
| 2026-05-04 05:34 | 49.87869 | 8.36948 | 8261 ft | 265 kts | 245° |
| 2026-05-04 05:34 | 49.87457 | 8.34208 | 9235 ft | 268 kts | 268° |
| 2026-05-04 05:34 | 49.87809 | 8.31351 | 10178 ft | 275 kts | 291° |
| 2026-05-04 05:34 | 49.88789 | 8.28721 | 10915 ft | 289 kts | 299° |
| 2026-05-04 05:35 | 49.89916 | 8.26009 | 11448 ft | 307 kts | 300° |
| 2026-05-04 05:35 | 49.91114 | 8.23141 | 11967 ft | 326 kts | 300° |
| 2026-05-04 05:35 | 49.92384 | 8.20088 | 12446 ft | 345 kts | 300° |
| 2026-05-04 05:35 | 49.93838 | 8.16999 | 13101 ft | 359 kts | 306° |
| 2026-05-04 05:36 | 49.95548 | 8.14106 | 13985 ft | 366 kts | 313° |
| 2026-05-04 05:36 | 49.97429 | 8.11465 | 14807 ft | 371 kts | 316° |
| 2026-05-04 05:36 | 49.99410 | 8.08822 | 15594 ft | 377 kts | 316° |
| 2026-05-04 05:36 | 50.01421 | 8.06157 | 16384 ft | 383 kts | 316° |
| 2026-05-04 05:37 | 50.03462 | 8.03446 | 17163 ft | 389 kts | 316° |
| 2026-05-04 05:37 | 50.05530 | 8.00687 | 17947 ft | 394 kts | 315° |
| 2026-05-04 05:37 | 50.07619 | 7.97891 | 18660 ft | 399 kts | 315° |
| 2026-05-04 05:38 | 50.11878 | 7.92170 | 20072 ft | 408 kts | 315° |
| 2026-05-04 05:38 | 50.14042 | 7.89257 | 20815 ft | 411 kts | 315° |
| 2026-05-04 05:38 | 50.16220 | 7.86320 | 21547 ft | 415 kts | 315° |
| 2026-05-04 05:38 | 50.18383 | 7.83397 | 22286 ft | 418 kts | 315° |
| 2026-05-04 05:39 | 50.20592 | 7.80412 | 23021 ft | 422 kts | 315° |
| 2026-05-04 05:39 | 50.25262 | 7.74610 | 24206 ft | 435 kts | 322° |
| 2026-05-04 05:39 | 50.27898 | 7.72190 | 24798 ft | 442 kts | 328° |
| 2026-05-04 05:40 | 50.33529 | 7.68206 | 25983 ft | 450 kts | 333° |
| 2026-05-04 05:40 | 50.36423 | 7.66267 | 26556 ft | 453 kts | 333° |
| 2026-05-04 05:40 | 50.39328 | 7.64299 | 27152 ft | 455 kts | 332° |
| 2026-05-04 05:41 | 50.42239 | 7.62309 | 27741 ft | 459 kts | 332° |
| 2026-05-04 05:41 | 50.45184 | 7.60285 | 28277 ft | 462 kts | 332° |
| 2026-05-04 05:41 | 50.48142 | 7.58245 | 28836 ft | 465 kts | 332° |
| 2026-05-04 05:41 | 50.51121 | 7.56187 | 29415 ft | 468 kts | 332° |
| 2026-05-04 05:42 | 50.54084 | 7.54011 | 29934 ft | 470 kts | 329° |
| 2026-05-04 05:42 | 50.56978 | 7.51579 | 30385 ft | 472 kts | 326° |
| 2026-05-04 05:42 | 50.59749 | 7.48936 | 30887 ft | 471 kts | 323° |
| 2026-05-04 05:42 | 50.62497 | 7.46152 | 31585 ft | 468 kts | 322° |
| 2026-05-04 05:43 | 50.65218 | 7.43353 | 32328 ft | 464 kts | 321° |
| 2026-05-04 05:43 | 50.67878 | 7.40473 | 33027 ft | 459 kts | 318° |
| 2026-05-04 05:43 | 50.70346 | 7.37322 | 33643 ft | 454 kts | 313° |
| 2026-05-04 05:45 | 50.82442 | 7.09354 | 36839 ft | 437 kts | 291° |
| 2026-05-04 05:45 | 50.83827 | 7.05062 | 37244 ft | 437 kts | 291° |
| 2026-05-04 05:47 | 50.93579 | 6.74736 | 39078 ft | 446 kts | 292° |
| 2026-05-04 05:47 | 50.94510 | 6.71821 | 39200 ft | 447 kts | 292° |
| 2026-05-04 05:47 | 50.95917 | 6.67408 | 39382 ft | 448 kts | 292° |
| 2026-05-04 05:48 | 50.97326 | 6.62985 | 39552 ft | 449 kts | 292° |
| 2026-05-04 05:48 | 50.98748 | 6.58512 | 39717 ft | 451 kts | 292° |
| 2026-05-04 05:48 | 51.00163 | 6.54058 | 39876 ft | 453 kts | 292° |
| 2026-05-04 05:48 | 51.01581 | 6.49581 | 39953 ft | 454 kts | 292° |
| 2026-05-04 05:49 | 51.04429 | 6.40571 | 39967 ft | 455 kts | 292° |
| 2026-05-04 05:49 | 51.07250 | 6.31614 | 39967 ft | 455 kts | 292° |
| 2026-05-04 05:51 | 51.15744 | 5.99273 | 39972 ft | 449 kts | 280° |
| 2026-05-04 05:51 | 51.16534 | 5.94446 | 39970 ft | 449 kts | 280° |
| 2026-05-04 05:52 | 51.18200 | 5.84800 | 39969 ft | 451 kts | 283° |
| 2026-05-04 05:52 | 51.20403 | 5.75424 | 39977 ft | 454 kts | 288° |
| 2026-05-04 05:54 | 51.27823 | 5.47207 | 39953 ft | 456 kts | 288° |
| 2026-05-04 05:55 | 51.30267 | 5.37831 | 39956 ft | 456 kts | 288° |
| 2026-05-04 05:55 | 51.32703 | 5.28449 | 39953 ft | 456 kts | 288° |
| 2026-05-04 05:56 | 51.35135 | 5.19033 | 39967 ft | 459 kts | 288° |
| 2026-05-04 05:56 | 51.37573 | 5.09562 | 39963 ft | 460 kts | 288° |
| 2026-05-04 05:57 | 51.40009 | 5.00062 | 39963 ft | 460 kts | 288° |
| 2026-05-04 05:57 | 51.42438 | 4.90546 | 39965 ft | 460 kts | 288° |
| 2026-05-04 05:58 | 51.44839 | 4.81100 | 39965 ft | 460 kts | 288° |
| 2026-05-04 05:58 | 51.47251 | 4.71554 | 39970 ft | 462 kts | 288° |
| 2026-05-04 05:59 | 51.49667 | 4.61973 | 39945 ft | 462 kts | 288° |
| 2026-05-04 05:59 | 51.52074 | 4.52391 | 39939 ft | 461 kts | 288° |
| 2026-05-04 06:00 | 51.54458 | 4.42853 | 39942 ft | 461 kts | 288° |
| 2026-05-04 06:00 | 51.56844 | 4.33259 | 39943 ft | 461 kts | 288° |
| 2026-05-04 06:01 | 51.59225 | 4.23646 | 39942 ft | 461 kts | 287° |
| 2026-05-04 06:03 | 51.68641 | 3.85215 | 39948 ft | 461 kts | 287° |
| 2026-05-04 06:05 | 51.76819 | 3.51283 | 39838 ft | 463 kts | 287° |
| 2026-05-04 06:05 | 51.79111 | 3.41693 | 39372 ft | 457 kts | 287° |
| 2026-05-04 06:05 | 51.80248 | 3.36908 | 39148 ft | 455 kts | 287° |
| 2026-05-04 06:06 | 51.81378 | 3.32134 | 38927 ft | 453 kts | 287° |
| 2026-05-04 06:06 | 51.82386 | 3.27321 | 38707 ft | 449 kts | 282° |
| 2026-05-04 06:06 | 51.83168 | 3.22409 | 38423 ft | 447 kts | 278° |
| 2026-05-04 06:06 | 51.83717 | 3.17472 | 38071 ft | 444 kts | 274° |
| 2026-05-04 06:07 | 51.84037 | 3.12518 | 37679 ft | 440 kts | 270° |
| 2026-05-04 06:07 | 51.84132 | 3.07579 | 37214 ft | 437 kts | 266° |
| 2026-05-04 06:07 | 51.84009 | 3.02681 | 36696 ft | 434 kts | 262° |
| 2026-05-04 06:07 | 51.83734 | 2.97796 | 36175 ft | 433 kts | 262° |
| 2026-05-04 06:08 | 51.83442 | 2.92940 | 35661 ft | 432 kts | 261° |
| 2026-05-04 06:08 | 51.83144 | 2.88088 | 35139 ft | 432 kts | 262° |
| 2026-05-04 06:08 | 51.82846 | 2.83234 | 34594 ft | 432 kts | 262° |
| 2026-05-04 06:08 | 51.82552 | 2.78450 | 34050 ft | 432 kts | 262° |
| 2026-05-04 06:09 | 51.82255 | 2.73608 | 33351 ft | 431 kts | 261° |
| 2026-05-04 06:09 | 51.81961 | 2.68801 | 32797 ft | 428 kts | 261° |
| 2026-05-04 06:11 | 51.79868 | 2.35848 | 28873 ft | 405 kts | 258° |
| 2026-05-04 06:11 | 51.79569 | 2.31338 | 28473 ft | 399 kts | 258° |
| 2026-05-04 06:13 | 51.77570 | 2.01496 | 26217 ft | 354 kts | 259° |
| 2026-05-04 06:14 | 51.76026 | 1.79152 | 25628 ft | 328 kts | 259° |
| 2026-05-04 06:14 | 51.75768 | 1.75483 | 25535 ft | 328 kts | 259° |
| 2026-05-04 06:15 | 51.75509 | 1.71815 | 25428 ft | 327 kts | 259° |
| 2026-05-04 06:15 | 51.75252 | 1.68205 | 25320 ft | 327 kts | 259° |
| 2026-05-04 06:15 | 51.74992 | 1.64549 | 25205 ft | 327 kts | 259° |
| 2026-05-04 06:15 | 51.74732 | 1.60897 | 25003 ft | 326 kts | 259° |
| 2026-05-04 06:16 | 51.74490 | 1.57235 | 24549 ft | 328 kts | 261° |
| 2026-05-04 06:16 | 51.74258 | 1.53587 | 24233 ft | 324 kts | 261° |
| 2026-05-04 06:16 | 51.74028 | 1.49963 | 23868 ft | 322 kts | 261° |
| 2026-05-04 06:16 | 51.73798 | 1.46366 | 23457 ft | 321 kts | 262° |
| 2026-05-04 06:17 | 51.73571 | 1.42831 | 22994 ft | 321 kts | 262° |
| 2026-05-04 06:17 | 51.73340 | 1.39238 | 22491 ft | 321 kts | 262° |
| 2026-05-04 06:17 | 51.73108 | 1.35652 | 22030 ft | 320 kts | 262° |
| 2026-05-04 06:17 | 51.72875 | 1.32068 | 21469 ft | 322 kts | 262° |
| 2026-05-04 06:18 | 51.72631 | 1.28378 | 20637 ft | 333 kts | 262° |
| 2026-05-04 06:18 | 51.72382 | 1.24631 | 20006 ft | 338 kts | 262° |
| 2026-05-04 06:18 | 51.72131 | 1.20844 | 19474 ft | 340 kts | 262° |
| 2026-05-04 06:20 | 51.70300 | 0.93821 | 15783 ft | 343 kts | 262° |
| 2026-05-04 06:20 | 51.70041 | 0.90062 | 15412 ft | 331 kts | 262° |
| 2026-05-04 06:21 | 51.69089 | 0.76444 | 13500 ft | 293 kts | 262° |
| 2026-05-04 06:21 | 51.68857 | 0.73195 | 12815 ft | 291 kts | 262° |
| 2026-05-04 06:22 | 51.68627 | 0.69968 | 12204 ft | 288 kts | 262° |
| 2026-05-04 06:22 | 51.68398 | 0.66759 | 11809 ft | 289 kts | 262° |
| 2026-05-04 06:25 | 51.61107 | 0.28111 | 8900 ft | 265 kts | 242° |
| 2026-05-04 06:25 | 51.60264 | 0.25520 | 8672 ft | 256 kts | 242° |
| 2026-05-04 06:26 | 51.59452 | 0.23027 | 8401 ft | 244 kts | 242° |
| 2026-05-04 06:26 | 51.58675 | 0.20647 | 8265 ft | 235 kts | 242° |
| 2026-05-04 06:26 | 51.57926 | 0.18357 | 8040 ft | 231 kts | 242° |
| 2026-05-04 06:26 | 51.57173 | 0.16058 | 7566 ft | 229 kts | 242° |
| 2026-05-04 06:27 | 51.54267 | 0.07035 | 6013 ft | 225 kts | 245° |
| 2026-05-04 06:28 | 51.53644 | 0.04728 | 5702 ft | 225 kts | 246° |
| 2026-05-04 06:28 | 51.53038 | 0.02445 | 5536 ft | 217 kts | 247° |
| 2026-05-04 06:28 | 51.52458 | 0.00280 | 5432 ft | 209 kts | 246° |
| 2026-05-04 06:28 | 51.51887 | -0.01835 | 5234 ft | 207 kts | 246° |
| 2026-05-04 06:29 | 51.51307 | -0.03965 | 4936 ft | 208 kts | 246° |
| 2026-05-04 06:29 | 51.50732 | -0.06066 | 4712 ft | 203 kts | 246° |
| 2026-05-04 06:29 | 51.50167 | -0.08125 | 4452 ft | 199 kts | 246° |
| 2026-05-04 06:29 | 51.49609 | -0.10153 | 4171 ft | 198 kts | 247° |
| 2026-05-04 06:30 | 51.49052 | -0.12181 | 3874 ft | 198 kts | 247° |
| 2026-05-04 06:30 | 51.48513 | -0.14189 | 3652 ft | 193 kts | 249° |
| 2026-05-04 06:30 | 51.48089 | -0.16201 | 3440 ft | 188 kts | 257° |
| 2026-05-04 06:30 | 51.47873 | -0.18263 | 3183 ft | 186 kts | 265° |
| 2026-05-04 06:31 | 51.47824 | -0.20325 | 2949 ft | 183 kts | 271° |
| 2026-05-04 06:31 | 51.47840 | -0.22335 | 2699 ft | 177 kts | 271° |
| 2026-05-04 06:31 | 51.47852 | -0.24278 | 2462 ft | 170 kts | 271° |
| 2026-05-04 06:31 | 51.47851 | -0.26141 | 2227 ft | 165 kts | 271° |
| 2026-05-04 06:32 | 51.47842 | -0.27999 | 2019 ft | 165 kts | 270° |
| 2026-05-04 06:33 | 51.47778 | -0.40492 | 480 ft | 156 kts | 270° |
| 2026-05-04 06:34 | 51.47773 | -0.41674 | 339 ft | 156 kts | 271° |
| 2026-05-04 06:34 | 51.47766 | -0.43389 | 145 ft | 155 kts | 271° |
| 2026-05-04 06:34 | 51.47765 | -0.45120 | 97 ft | 122 kts | 270° |
| 2026-05-04 06:34 | 51.47758 | -0.46260 | 98 ft | 63 kts | 270° |
| 2026-05-04 06:35 | 51.47757 | -0.47002 | 99 ft | 59 kts | 269° |
| 2026-05-04 06:36 | 51.47580 | -0.48039 | 98 ft | 0 kts | 92° |
| 2026-05-04 06:37 | 51.47580 | -0.48025 | 98 ft | 3 kts | 91° |
| 2026-05-04 06:37 | 51.47580 | -0.47972 | 98 ft | 7 kts | 91° |
| 2026-05-04 06:37 | 51.47565 | -0.47889 | 97 ft | 8 kts | 140° |
| 2026-05-04 06:38 | 51.47499 | -0.47875 | 94 ft | 12 kts | 176° |
| 2026-05-04 06:38 | 51.47405 | -0.47873 | 96 ft | 15 kts | 178° |
| 2026-05-04 06:40 | 51.47213 | -0.47987 | 96 ft | 2 kts | 270° |
| 2026-05-04 06:40 | 51.47213 | -0.48002 | 95 ft | 1 kts | 270° |
| 2026-05-04 06:40 | 51.47213 | -0.48011 | 95 ft | 0 kts | 270° |
| 2026-05-04 06:40 | 51.47213 | -0.48012 | 95 ft | 0 kts | 270° |